METAR EFET 222050Z AUTO 20013KT 7000 -SN OVC005 M07/M08 Q0999=
METAR EFHA 222050Z AUTO 15003KT CAVOK M11/M13 Q1020=
METAR EFHK 222120Z 32002KT CAVOK M10/M11 Q1022 NOSIG=
METAR EFIV 222050Z AUTO 21011G22KT 180V240 9000 OVC010 M05/M07 Q1002=
METAR EFJO 222050Z AUTO 31003KT 290V350 9999 FEW007 M08/M08 Q1019=
METAR EFJY 222050Z AUTO VRB02KT CAVOK M15/M17 Q1020=
METAR EFKE 222050Z AUTO 18016KT 5000 -SN OVC004 M03/M04 Q1011=
METAR EFKI 222050Z AUTO 17008KT CAVOK M10/M12 Q1018=
METAR EFKK 222050Z AUTO 18012KT 9999 OVC010 M03/M05 Q1016=
METAR EFKS 222050Z AUTO 18006KT CAVOK M10/M11 Q1014=
METAR EFKT 222050Z AUTO 19010KT 9999 -FZDZ OVC005 M04/M05 Q1003=
METAR EFKU 222050Z AUTO 16006KT 1600 BCFG OVC002 M11/M12 Q1020=
METAR EFLA 222120Z AUTO VRB01KT 9999 OVC110/// M13/M14 Q1020=
METAR EFLP 222050Z AUTO 33006KT 9999 BKN005 BKN035 M05/M07 Q1020=
METAR EFMA 222050Z AUTO 21005KT 9999 BKN017 OVC046 M01/M06 Q1021=
METAR EFMI 222050Z AUTO VRB01KT 9999 SCT004 M12/M13 Q1021=
METAR EFOU 222050Z AUTO 17008KT 9999 OVC029 M05/M09 Q1015=
METAR EFPO 222050Z AUTO 15006KT 9999 BKN028 OVC047 M05/M07 Q1020=
METAR EFRO 222050Z AUTO 20020KT 9999 OVC004 M05/M06 Q1008=
METAR EFSA 222050Z AUTO 31004KT 9999 OVC004 M05/M06 Q1020=
METAR EFSI 222050Z AUTO 17008KT 9999 VCSH OVC028 //////CB M06/M08 Q1018=
METAR EFTP 222050Z AUTO 14003KT CAVOK M08/M09 Q1020=
METAR EFTU 222050Z AUTO 13003KT CAVOK M06/M08 Q1021=
METAR EFUT 222050Z AUTO 34005KT 9999 BKN034 M09/M10 Q1020=
METAR EFVA 222050Z AUTO 19009KT 9999 OVC009 M02/M04 Q1017=
ILHF 222110Z AUTO 07001KT CAVOK M11/M12 Q1022=
ILIK 222110Z AUTO 15001KT CAVOK M10/M11 Q1021=
ILJY 222110Z AUTO 15003KT //// // ////// M14/M16 Q1020=
ILKA 222110Z AUTO 18008KT 9999 OVC016 M05/M07 Q1018=
ILKM 222110Z AUTO 18011KT 9999 SCT012 BKN015 OVC018 M07/M09 Q1008=
ILMI 222110Z AUTO 00000KT 9999 BKN004 M12/M13 Q1021=
ILPR 222110Z AUTO 00000KT CAVOK M14/M15 Q1022=
ILPU 222110Z AUTO 17006KT 9999 FEW037 BKN042 OVC049 M08/M09 Q1014=
ILQA 222110Z AUTO 16009KT 9999 OVC036 M07/M10 Q1010=
ILQB 222110Z AUTO 20011G22KT 9999 BKN013 M06/M08 Q1002=
ILQC 222110Z AUTO 20012G23KT 6000 -SN OVC005 M05/M06 Q1000=
ILQD 222110Z AUTO /////KT 9999 OVC013 M05/M07 Q////=
ILQE 222110Z AUTO 18011KT 9999 OVC007 M02/M04 Q1006=
ILQF 222110Z AUTO 18016KT 2500 -SN OVC004 M05/M05 Q1010=
ILQH 222110Z AUTO 18025KT 9999 OVC010 M04/M06 Q1013=
ILQI 222110Z AUTO 20014G28KT //// // OVC004 M05/M06 Q0999=
ILQJ 222110Z AUTO 18022KT 5000 SG BKN005 BKN007 M03/M04 Q1011=
ILQL 222110Z AUTO 15012KT 9999 ////// M06/M09 Q1014=
ILQM 222110Z AUTO 20013G23KT 2200 -SN OVC003 M05/M07 Q////=
ILQN 222110Z AUTO 10017G28KT 9999 BKN018 OVC033 M04/M08 Q0992=
ILQO 222110Z AUTO 19012G22KT 9999 OVC005 M05/M06 Q1006=
ILQP 222110Z AUTO 17018KT 9999 ////// M04/M07 Q1014=
ILQQ 222110Z AUTO 19011KT 1200 -SN OVC005 M01/M02 Q1010=
ILQR 222110Z AUTO 19012KT 9999 BKN005 OVC007 M04/M05 Q1009=
ILQS 222110Z AUTO 15003KT 6000 -SN OVC001 M13/M14 Q1016=
ILQT 222110Z AUTO 18018KT 5000 SG OVC004 M07/M08 Q0997=
ILQU 222110Z AUTO 16007KT 9999 OVC013 M05/M07 Q0999=
ILQV 222110Z AUTO 18008KT 6000 SG OVC005 M06/M07 Q1003=
ILQX 222110Z AUTO 17007KT 9999 OVC034 M05/M08 Q1014=
ILQY 222110Z AUTO 17007KT 9999 BKN042 BKN068 M08/M10 Q1016=
ILRO 222110Z AUTO /////KT 9999 ////// M05/M06 Q////=
ILRU 222110Z AUTO 17009KT 9999 BKN023 M08/M10 Q1011=
ILWA 222110Z AUTO 33005KT 9999 OVC041 M07/M08 Q1021=
ILWD 222110Z AUTO /////KT //// // NSC M12/M13 Q////=
ILWE 222110Z AUTO 20014KT 3200 -SN OVC007 M06/M07 Q0998=
ILWF 222110Z AUTO 17008KT 9999 FEW044 SCT053 BKN060 M09/M10 Q////=
ILWG 222110Z AUTO /////KT CAVOK M09/M11 Q1019=
ILXA 222120Z AUTO /////KT 9999 SCT038 BKN065 M09/M10 Q1019=
ILXB 222110Z AUTO 15006KT 9999 SCT025 BKN035 OVC062 M05/M07 Q1020=
ILXC 222110Z AUTO 27003KT 0900 -SHSN OVC002 M09/M10 Q1021=
ILXD 222110Z AUTO /////KT 9999 FEW007 BKN039 M07/M08 Q1020=
ILXE 222110Z AUTO 17008KT CAVOK M12/M13 Q1017=
ILXF 222110Z AUTO 17011KT 9999 BKN037 OVC068 M02/M04 Q1021=
ILXG 222110Z AUTO 16017KT 9999 OVC015 M02/M02 Q1018=
ILXI 222110Z AUTO 00000KT 6000 SHUP FEW000 BKN009 M06/M06 Q1019=
ILXJ 222110Z AUTO 16004KT CAVOK M10/M11 Q1017=
ILXK 222110Z AUTO 22003KT 9999 -SN BKN002 M13/M15 Q1018=
ILXL 222110Z AUTO /////KT 9999 SCT032 BKN062 //////CB M07/M09 Q1017=
ILXM 222110Z AUTO /////KT 9999 OVC002 M09/M10 Q////=
ILXN 222110Z AUTO 17005KT 9999 FEW028 BKN039 OVC059 //////CB M07/M09 Q1019=
ILXO 222110Z AUTO 15006KT 9999 FEW011 BKN015 OVC025 M06/M07 Q1018=
ILXP 222110Z AUTO 18015KT 9999 FEW019 BKN032 M02/M03 Q1019=
ILXQ 222110Z AUTO /////KT CAVOK M12/M14 Q////=
ILXR 222110Z AUTO 19005KT 2700 BR OVC001 M08/M09 Q1019=
ILXS 222110Z AUTO 20004KT 9999 FEW001 BKN085 M12/M13 Q1018=
ILXT 222110Z AUTO 19015KT 9999 OVC021 M03/M04 Q1014=
ILXU 222110Z AUTO /////KT 9999 OVC004 M05/M06 Q1020=
ILXV 222110Z AUTO 15002KT CAVOK M12/M13 Q1018=
ILXW 222110Z AUTO 18004KT 9999 SCT041 OVC059 M08/M10 Q1017=
ILXX 222110Z AUTO 19010KT 9999 OVC007 M02/M03 Q1017=
ILXY 222110Z AUTO 15003KT 8000 -SN OVC002 M11/M13 Q1020=
ILXZ 222110Z AUTO 31004KT 9999 BKN003 M05/M06 Q////=
ILYL 222110Z AUTO 16008KT 9999 FEW034 BKN045 M06/M09 Q1016=
ILZA 222110Z AUTO 32004KT CAVOK M06/M07 Q1022=
ILZB 222110Z AUTO 24002KT 9999 BKN017 M02/M06 Q1021=
ILZC 222110Z AUTO /////KT 9999 OVC006 M05/M06 Q1020=
ILZD 222110Z AUTO 36002KT CAVOK M10/M11 Q1022=
ILZE 222110Z AUTO 33003KT CAVOK M09/M10 Q1022=
ILZF 222110Z AUTO 30002KT CAVOK M11/M12 Q1021=
ILZG 222110Z AUTO /////KT CAVOK M10/M11 Q1022=
ILZH 222110Z AUTO /////KT CAVOK M08/M10 Q1020=
ILZI 222110Z AUTO 20011KT 9999 FEW023 SCT037 OVC044 M01/M04 Q1021=
ILZJ 222110Z AUTO 16004KT CAVOK M09/M10 Q1021=
ILZK 222110Z AUTO 21009KT 9999 BKN022 OVC026 M00/M06 Q1021=
ILZL 222110Z AUTO 00000KT CAVOK M10/M11 Q1021=
ILZM 222110Z AUTO /////KT CAVOK M11/M11 Q1022=
ILZO 222110Z AUTO 36006KT 9999 OVC041 M05/M06 Q1021=
ILZP 222110Z AUTO 16003KT 9999 OVC036 M05/M08 Q1021=
ILZQ 222110Z AUTO 00000KT CAVOK M12/M13 Q1021=
ILZR 222110Z AUTO 16003KT CAVOK M05/M07 Q1022=
ILZS 222110Z AUTO 03004KT CAVOK M06/M08 Q1022=
ILZT 222110Z AUTO 02003KT CAVOK M07/M08 Q1022=
ILZU 222110Z AUTO 21004KT CAVOK M01/M03 Q1022=
ILZV 222110Z AUTO 31004KT 9999 FEW027 M11/M12 Q1022=
ILZW 222110Z AUTO 35010KT CAVOK M05/M07 Q1021=
ILZX 222110Z AUTO 31002KT CAVOK M10/M11 Q1022=
ILZY 222110Z AUTO 23013KT 9999 OVC019 00/M05 Q1021=
ILZZ 222110Z AUTO /////KT CAVOK M12/M13 Q1021=